sensor_id;sensor_type;location;lat;lon;timestamp;P1;durP1;ratioP1;P2;durP2;ratioP2
13580;SDS011;6861;46.170;7.222;2023-05-10T00:00:17;1.20;;;0.30;;
13580;SDS011;6861;46.170;7.222;2023-05-10T00:02:46;0.50;;;0.30;;
13580;SDS011;6861;46.170;7.222;2023-05-10T00:05:14;0.60;;;0.30;;
13580;SDS011;6861;46.170;7.222;2023-05-10T00:07:42;0.38;;;0.30;;
13580;SDS011;6861;46.170;7.222;2023-05-10T00:10:11;1.05;;;0.30;;
13580;SDS011;6861;46.170;7.222;2023-05-10T00:12:39;0.57;;;0.25;;
13580;SDS011;6861;46.170;7.222;2023-05-10T00:15:08;0.85;;;0.38;;
13580;SDS011;6861;46.170;7.222;2023-05-10T00:17:38;0.50;;;0.30;;
13580;SDS011;6861;46.170;7.222;2023-05-10T00:20:07;0.73;;;0.20;;
13580;SDS011;6861;46.170;7.222;2023-05-10T00:22:35;2.78;;;0.20;;
13580;SDS011;6861;46.170;7.222;2023-05-10T00:25:04;1.40;;;0.30;;
13580;SDS011;6861;46.170;7.222;2023-05-10T00:27:33;0.80;;;0.40;;
13580;SDS011;6861;46.170;7.222;2023-05-10T00:30:01;1.85;;;0.38;;
13580;SDS011;6861;46.170;7.222;2023-05-10T00:32:29;0.40;;;0.30;;
13580;SDS011;6861;46.170;7.222;2023-05-10T00:34:59;1.05;;;0.30;;
13580;SDS011;6861;46.170;7.222;2023-05-10T00:37:27;1.58;;;0.22;;
13580;SDS011;6861;46.170;7.222;2023-05-10T00:39:55;0.50;;;0.30;;
13580;SDS011;6861;46.170;7.222;2023-05-10T00:42:23;1.33;;;0.40;;
13580;SDS011;6861;46.170;7.222;2023-05-10T00:44:51;1.77;;;0.30;;
13580;SDS011;6861;46.170;7.222;2023-05-10T00:47:19;2.50;;;0.30;;
13580;SDS011;6861;46.170;7.222;2023-05-10T00:49:48;1.48;;;0.60;;
13580;SDS011;6861;46.170;7.222;2023-05-10T00:52:17;1.80;;;0.50;;
13580;SDS011;6861;46.170;7.222;2023-05-10T00:54:46;0.60;;;0.50;;
13580;SDS011;6861;46.170;7.222;2023-05-10T00:57:15;0.57;;;0.30;;
13580;SDS011;6861;46.170;7.222;2023-05-10T00:59:43;1.05;;;0.40;;
13580;SDS011;6861;46.170;7.222;2023-05-10T01:02:11;0.80;;;0.20;;
13580;SDS011;6861;46.170;7.222;2023-05-10T01:04:39;0.63;;;0.60;;
13580;SDS011;6861;46.170;7.222;2023-05-10T01:07:08;0.50;;;0.30;;
13580;SDS011;6861;46.170;7.222;2023-05-10T01:09:38;0.85;;;0.30;;
13580;SDS011;6861;46.170;7.222;2023-05-10T01:12:06;1.67;;;0.25;;
13580;SDS011;6861;46.170;7.222;2023-05-10T01:14:34;0.65;;;0.45;;
13580;SDS011;6861;46.170;7.222;2023-05-10T01:17:04;0.43;;;0.30;;
13580;SDS011;6861;46.170;7.222;2023-05-10T01:19:34;0.38;;;0.10;;
13580;SDS011;6861;46.170;7.222;2023-05-10T01:22:05;0.93;;;0.30;;
13580;SDS011;6861;46.170;7.222;2023-05-10T01:24:56;2.00;;;0.22;;
13580;SDS011;6861;46.170;7.222;2023-05-10T01:27:47;3.50;;;0.20;;
13580;SDS011;6861;46.170;7.222;2023-05-10T01:33:54;0.38;;;0.15;;
13580;SDS011;6861;46.170;7.222;2023-05-10T01:36:26;0.50;;;0.20;;
13580;SDS011;6861;46.170;7.222;2023-05-10T01:38:59;6.07;;;0.32;;
13580;SDS011;6861;46.170;7.222;2023-05-10T01:41:36;2.40;;;0.25;;
13580;SDS011;6861;46.170;7.222;2023-05-10T01:44:13;0.40;;;0.10;;
13580;SDS011;6861;46.170;7.222;2023-05-10T01:46:47;0.30;;;0.10;;
13580;SDS011;6861;46.170;7.222;2023-05-10T01:49:23;0.30;;;0.20;;
13580;SDS011;6861;46.170;7.222;2023-05-10T01:51:54;1.00;;;0.30;;
13580;SDS011;6861;46.170;7.222;2023-05-10T01:54:27;2.65;;;0.30;;
13580;SDS011;6861;46.170;7.222;2023-05-10T01:56:58;0.38;;;0.22;;
13580;SDS011;6861;46.170;7.222;2023-05-10T01:59:30;0.75;;;0.30;;
13580;SDS011;6861;46.170;7.222;2023-05-10T02:02:05;0.68;;;0.20;;
13580;SDS011;6861;46.170;7.222;2023-05-10T02:04:36;0.30;;;0.20;;
13580;SDS011;6861;46.170;7.222;2023-05-10T02:07:06;0.63;;;0.20;;
13580;SDS011;6861;46.170;7.222;2023-05-10T02:09:36;0.30;;;0.20;;
13580;SDS011;6861;46.170;7.222;2023-05-10T02:12:05;2.97;;;0.25;;
13580;SDS011;6861;46.170;7.222;2023-05-10T02:14:35;1.10;;;0.40;;
13580;SDS011;6861;46.170;7.222;2023-05-10T02:17:05;1.85;;;0.35;;
13580;SDS011;6861;46.170;7.222;2023-05-10T02:19:37;1.67;;;0.20;;
13580;SDS011;6861;46.170;7.222;2023-05-10T02:22:08;1.17;;;0.30;;
13580;SDS011;6861;46.170;7.222;2023-05-10T02:24:37;1.65;;;0.20;;
13580;SDS011;6861;46.170;7.222;2023-05-10T02:27:07;0.40;;;0.20;;
13580;SDS011;6861;46.170;7.222;2023-05-10T02:29:37;0.38;;;0.20;;
13580;SDS011;6861;46.170;7.222;2023-05-10T02:32:06;0.63;;;0.20;;
13580;SDS011;6861;46.170;7.222;2023-05-10T02:34:38;0.30;;;0.20;;
13580;SDS011;6861;46.170;7.222;2023-05-10T02:37:07;0.73;;;0.10;;
13580;SDS011;6861;46.170;7.222;2023-05-10T02:39:36;0.73;;;0.30;;
13580;SDS011;6861;46.170;7.222;2023-05-10T02:42:06;0.40;;;0.30;;
13580;SDS011;6861;46.170;7.222;2023-05-10T02:44:35;0.55;;;0.30;;
13580;SDS011;6861;46.170;7.222;2023-05-10T02:47:04;3.67;;;0.40;;
13580;SDS011;6861;46.170;7.222;2023-05-10T02:49:33;0.93;;;0.30;;
13580;SDS011;6861;46.170;7.222;2023-05-10T02:52:04;0.50;;;0.38;;
13580;SDS011;6861;46.170;7.222;2023-05-10T02:54:39;0.55;;;0.30;;
13580;SDS011;6861;46.170;7.222;2023-05-10T02:57:14;0.73;;;0.30;;
13580;SDS011;6861;46.170;7.222;2023-05-10T02:59:45;0.38;;;0.20;;
13580;SDS011;6861;46.170;7.222;2023-05-10T03:02:13;0.30;;;0.20;;
13580;SDS011;6861;46.170;7.222;2023-05-10T03:04:42;0.73;;;0.30;;
13580;SDS011;6861;46.170;7.222;2023-05-10T03:07:11;1.15;;;0.30;;
13580;SDS011;6861;46.170;7.222;2023-05-10T03:09:39;0.95;;;0.20;;
13580;SDS011;6861;46.170;7.222;2023-05-10T03:12:10;0.50;;;0.20;;
13580;SDS011;6861;46.170;7.222;2023-05-10T03:14:45;0.68;;;0.30;;
13580;SDS011;6861;46.170;7.222;2023-05-10T03:17:22;1.48;;;0.20;;
13580;SDS011;6861;46.170;7.222;2023-05-10T03:19:57;1.55;;;0.30;;
13580;SDS011;6861;46.170;7.222;2023-05-10T03:22:32;1.38;;;0.28;;
13580;SDS011;6861;46.170;7.222;2023-05-10T03:25:05;1.50;;;0.20;;
13580;SDS011;6861;46.170;7.222;2023-05-10T03:27:36;1.75;;;0.20;;
13580;SDS011;6861;46.170;7.222;2023-05-10T03:30:07;1.35;;;0.30;;
13580;SDS011;6861;46.170;7.222;2023-05-10T03:32:38;1.50;;;0.30;;
13580;SDS011;6861;46.170;7.222;2023-05-10T03:35:06;0.50;;;0.20;;
13580;SDS011;6861;46.170;7.222;2023-05-10T03:37:37;0.73;;;0.30;;
13580;SDS011;6861;46.170;7.222;2023-05-10T03:40:05;1.33;;;0.32;;
13580;SDS011;6861;46.170;7.222;2023-05-10T03:42:34;0.63;;;0.30;;
13580;SDS011;6861;46.170;7.222;2023-05-10T03:45:02;0.82;;;0.35;;
13580;SDS011;6861;46.170;7.222;2023-05-10T03:47:31;0.82;;;0.30;;
13580;SDS011;6861;46.170;7.222;2023-05-10T03:49:59;1.10;;;0.25;;
13580;SDS011;6861;46.170;7.222;2023-05-10T03:52:28;1.63;;;0.40;;
13580;SDS011;6861;46.170;7.222;2023-05-10T03:54:57;3.22;;;0.50;;
13580;SDS011;6861;46.170;7.222;2023-05-10T03:57:25;0.80;;;0.40;;
13580;SDS011;6861;46.170;7.222;2023-05-10T03:59:53;0.35;;;0.28;;
13580;SDS011;6861;46.170;7.222;2023-05-10T04:02:21;0.88;;;0.45;;
13580;SDS011;6861;46.170;7.222;2023-05-10T04:04:50;2.92;;;0.40;;
13580;SDS011;6861;46.170;7.222;2023-05-10T04:07:18;1.05;;;0.30;;
13580;SDS011;6861;46.170;7.222;2023-05-10T04:09:46;0.57;;;0.30;;
13580;SDS011;6861;46.170;7.222;2023-05-10T04:12:16;0.52;;;0.20;;
13580;SDS011;6861;46.170;7.222;2023-05-10T04:14:44;1.45;;;0.38;;
13580;SDS011;6861;46.170;7.222;2023-05-10T04:17:12;1.67;;;0.30;;
13580;SDS011;6861;46.170;7.222;2023-05-10T04:19:40;0.55;;;0.20;;
13580;SDS011;6861;46.170;7.222;2023-05-10T04:22:08;0.82;;;0.22;;
13580;SDS011;6861;46.170;7.222;2023-05-10T04:24:37;0.60;;;0.30;;
13580;SDS011;6861;46.170;7.222;2023-05-10T04:27:05;1.73;;;0.35;;
13580;SDS011;6861;46.170;7.222;2023-05-10T04:29:34;0.60;;;0.40;;
13580;SDS011;6861;46.170;7.222;2023-05-10T04:32:02;3.10;;;0.20;;
13580;SDS011;6861;46.170;7.222;2023-05-10T04:34:31;0.65;;;0.40;;
13580;SDS011;6861;46.170;7.222;2023-05-10T04:37:00;3.70;;;0.85;;
13580;SDS011;6861;46.170;7.222;2023-05-10T04:39:28;1.40;;;0.38;;
13580;SDS011;6861;46.170;7.222;2023-05-10T04:41:56;2.47;;;0.40;;
13580;SDS011;6861;46.170;7.222;2023-05-10T04:44:24;2.15;;;0.35;;
13580;SDS011;6861;46.170;7.222;2023-05-10T04:46:54;4.00;;;0.47;;
13580;SDS011;6861;46.170;7.222;2023-05-10T04:49:22;0.40;;;0.22;;
13580;SDS011;6861;46.170;7.222;2023-05-10T04:51:50;1.55;;;0.52;;
13580;SDS011;6861;46.170;7.222;2023-05-10T04:54:18;0.50;;;0.40;;
13580;SDS011;6861;46.170;7.222;2023-05-10T04:56:46;1.73;;;0.55;;
13580;SDS011;6861;46.170;7.222;2023-05-10T04:59:14;1.42;;;0.30;;
13580;SDS011;6861;46.170;7.222;2023-05-10T05:01:43;3.08;;;0.50;;
13580;SDS011;6861;46.170;7.222;2023-05-10T05:04:12;0.55;;;0.32;;
13580;SDS011;6861;46.170;7.222;2023-05-10T05:06:41;1.05;;;0.10;;
13580;SDS011;6861;46.170;7.222;2023-05-10T05:09:09;0.63;;;0.32;;
13580;SDS011;6861;46.170;7.222;2023-05-10T05:11:37;1.85;;;0.50;;
13580;SDS011;6861;46.170;7.222;2023-05-10T05:14:06;1.17;;;0.30;;
13580;SDS011;6861;46.170;7.222;2023-05-10T05:16:34;1.88;;;0.52;;
13580;SDS011;6861;46.170;7.222;2023-05-10T05:19:02;0.77;;;0.30;;
13580;SDS011;6861;46.170;7.222;2023-05-10T05:21:32;1.45;;;0.47;;
13580;SDS011;6861;46.170;7.222;2023-05-10T05:24:00;1.67;;;0.50;;
13580;SDS011;6861;46.170;7.222;2023-05-10T05:26:28;1.85;;;0.30;;
13580;SDS011;6861;46.170;7.222;2023-05-10T05:28:56;3.13;;;0.60;;
13580;SDS011;6861;46.170;7.222;2023-05-10T05:31:24;3.90;;;0.70;;
13580;SDS011;6861;46.170;7.222;2023-05-10T05:33:52;1.77;;;0.45;;
13580;SDS011;6861;46.170;7.222;2023-05-10T05:36:20;2.83;;;0.60;;
13580;SDS011;6861;46.170;7.222;2023-05-10T05:38:50;0.95;;;0.40;;
13580;SDS011;6861;46.170;7.222;2023-05-10T05:41:18;3.65;;;0.40;;
13580;SDS011;6861;46.170;7.222;2023-05-10T05:43:47;1.70;;;0.45;;
13580;SDS011;6861;46.170;7.222;2023-05-10T05:46:16;2.90;;;0.68;;
13580;SDS011;6861;46.170;7.222;2023-05-10T05:48:44;1.33;;;0.43;;
13580;SDS011;6861;46.170;7.222;2023-05-10T05:51:12;1.40;;;0.30;;
13580;SDS011;6861;46.170;7.222;2023-05-10T05:53:40;0.60;;;0.40;;
13580;SDS011;6861;46.170;7.222;2023-05-10T05:56:09;0.60;;;0.50;;
13580;SDS011;6861;46.170;7.222;2023-05-10T05:58:37;2.33;;;0.43;;
13580;SDS011;6861;46.170;7.222;2023-05-10T06:01:06;2.47;;;1.70;;
13580;SDS011;6861;46.170;7.222;2023-05-10T06:03:34;1.88;;;1.25;;
13580;SDS011;6861;46.170;7.222;2023-05-10T06:06:03;6.28;;;1.17;;
13580;SDS011;6861;46.170;7.222;2023-05-10T06:08:31;1.98;;;0.30;;
13580;SDS011;6861;46.170;7.222;2023-05-10T06:11:00;1.05;;;0.60;;
13580;SDS011;6861;46.170;7.222;2023-05-10T06:13:31;2.95;;;0.60;;
13580;SDS011;6861;46.170;7.222;2023-05-10T06:16:01;2.28;;;1.00;;
13580;SDS011;6861;46.170;7.222;2023-05-10T06:18:30;0.50;;;0.32;;
13580;SDS011;6861;46.170;7.222;2023-05-10T06:20:58;0.50;;;0.40;;
13580;SDS011;6861;46.170;7.222;2023-05-10T06:23:26;2.05;;;0.20;;
13580;SDS011;6861;46.170;7.222;2023-05-10T06:25:55;0.47;;;0.30;;
13580;SDS011;6861;46.170;7.222;2023-05-10T06:28:23;0.82;;;0.40;;
13580;SDS011;6861;46.170;7.222;2023-05-10T06:30:52;1.38;;;0.50;;
13580;SDS011;6861;46.170;7.222;2023-05-10T06:33:20;2.60;;;0.40;;
13580;SDS011;6861;46.170;7.222;2023-05-10T06:35:48;2.47;;;0.60;;
13580;SDS011;6861;46.170;7.222;2023-05-10T06:38:16;0.70;;;0.43;;
13580;SDS011;6861;46.170;7.222;2023-05-10T06:40:44;1.40;;;0.60;;
13580;SDS011;6861;46.170;7.222;2023-05-10T06:43:12;0.38;;;0.30;;
13580;SDS011;6861;46.170;7.222;2023-05-10T06:45:41;1.23;;;0.73;;
13580;SDS011;6861;46.170;7.222;2023-05-10T06:48:11;1.10;;;0.47;;
13580;SDS011;6861;46.170;7.222;2023-05-10T06:50:39;2.15;;;0.50;;
13580;SDS011;6861;46.170;7.222;2023-05-10T06:53:07;2.05;;;0.30;;
13580;SDS011;6861;46.170;7.222;2023-05-10T06:55:35;0.85;;;0.40;;
13580;SDS011;6861;46.170;7.222;2023-05-10T06:58:03;0.82;;;0.40;;
13580;SDS011;6861;46.170;7.222;2023-05-10T07:00:32;2.47;;;0.60;;
13580;SDS011;6861;46.170;7.222;2023-05-10T07:03:00;1.70;;;0.50;;
13580;SDS011;6861;46.170;7.222;2023-05-10T07:05:30;1.10;;;0.80;;
13580;SDS011;6861;46.170;7.222;2023-05-10T07:07:58;1.15;;;0.50;;
13580;SDS011;6861;46.170;7.222;2023-05-10T07:10:26;1.98;;;0.60;;
13580;SDS011;6861;46.170;7.222;2023-05-10T07:12:54;2.00;;;0.93;;
13580;SDS011;6861;46.170;7.222;2023-05-10T07:15:23;1.98;;;0.98;;
13580;SDS011;6861;46.170;7.222;2023-05-10T07:17:51;2.45;;;0.93;;
13580;SDS011;6861;46.170;7.222;2023-05-10T07:20:19;0.60;;;0.60;;
13580;SDS011;6861;46.170;7.222;2023-05-10T07:22:48;1.45;;;0.60;;
13580;SDS011;6861;46.170;7.222;2023-05-10T07:25:16;1.52;;;0.60;;
13580;SDS011;6861;46.170;7.222;2023-05-10T07:27:45;2.25;;;0.47;;
13580;SDS011;6861;46.170;7.222;2023-05-10T07:30:14;3.38;;;0.47;;
13580;SDS011;6861;46.170;7.222;2023-05-10T07:32:42;1.60;;;0.57;;
13580;SDS011;6861;46.170;7.222;2023-05-10T07:35:11;3.08;;;0.52;;
13580;SDS011;6861;46.170;7.222;2023-05-10T07:37:39;1.40;;;0.57;;
13580;SDS011;6861;46.170;7.222;2023-05-10T07:40:09;0.95;;;0.60;;
13580;SDS011;6861;46.170;7.222;2023-05-10T07:42:38;2.17;;;0.60;;
13580;SDS011;6861;46.170;7.222;2023-05-10T07:45:08;1.05;;;0.60;;
13580;SDS011;6861;46.170;7.222;2023-05-10T07:47:36;1.60;;;0.60;;
13580;SDS011;6861;46.170;7.222;2023-05-10T07:50:05;2.28;;;0.40;;
13580;SDS011;6861;46.170;7.222;2023-05-10T07:52:34;0.73;;;0.30;;
13580;SDS011;6861;46.170;7.222;2023-05-10T07:55:02;1.02;;;0.32;;
13580;SDS011;6861;46.170;7.222;2023-05-10T07:57:33;1.15;;;0.30;;
13580;SDS011;6861;46.170;7.222;2023-05-10T08:00:01;1.58;;;0.47;;
13580;SDS011;6861;46.170;7.222;2023-05-10T08:02:29;2.67;;;0.47;;
13580;SDS011;6861;46.170;7.222;2023-05-10T08:04:57;0.95;;;0.40;;
13580;SDS011;6861;46.170;7.222;2023-05-10T08:07:25;0.52;;;0.30;;
13580;SDS011;6861;46.170;7.222;2023-05-10T08:09:53;2.13;;;0.40;;
13580;SDS011;6861;46.170;7.222;2023-05-10T08:12:22;1.13;;;0.55;;
13580;SDS011;6861;46.170;7.222;2023-05-10T08:14:52;1.77;;;0.57;;
13580;SDS011;6861;46.170;7.222;2023-05-10T08:17:20;2.15;;;0.40;;
13580;SDS011;6861;46.170;7.222;2023-05-10T08:19:50;1.85;;;0.60;;
13580;SDS011;6861;46.170;7.222;2023-05-10T08:22:18;2.63;;;0.50;;
13580;SDS011;6861;46.170;7.222;2023-05-10T08:24:46;1.98;;;0.50;;
13580;SDS011;6861;46.170;7.222;2023-05-10T08:27:14;0.90;;;0.45;;
13580;SDS011;6861;46.170;7.222;2023-05-10T08:29:42;2.00;;;0.40;;
13580;SDS011;6861;46.170;7.222;2023-05-10T08:32:17;1.70;;;0.38;;
13580;SDS011;6861;46.170;7.222;2023-05-10T08:34:45;1.50;;;0.40;;
13580;SDS011;6861;46.170;7.222;2023-05-10T08:37:13;3.72;;;0.73;;
13580;SDS011;6861;46.170;7.222;2023-05-10T08:39:41;2.08;;;0.40;;
13580;SDS011;6861;46.170;7.222;2023-05-10T08:42:09;1.83;;;0.50;;
13580;SDS011;6861;46.170;7.222;2023-05-10T08:44:40;2.00;;;0.50;;
13580;SDS011;6861;46.170;7.222;2023-05-10T08:47:08;0.52;;;0.38;;
13580;SDS011;6861;46.170;7.222;2023-05-10T08:49:39;1.30;;;0.50;;
13580;SDS011;6861;46.170;7.222;2023-05-10T08:52:09;1.13;;;0.40;;
13580;SDS011;6861;46.170;7.222;2023-05-10T08:54:40;1.65;;;0.30;;
13580;SDS011;6861;46.170;7.222;2023-05-10T08:57:09;2.05;;;0.50;;
13580;SDS011;6861;46.170;7.222;2023-05-10T08:59:38;0.70;;;0.47;;
13580;SDS011;6861;46.170;7.222;2023-05-10T09:02:06;1.70;;;0.40;;
13580;SDS011;6861;46.170;7.222;2023-05-10T09:04:38;2.20;;;0.50;;
13580;SDS011;6861;46.170;7.222;2023-05-10T09:07:07;2.05;;;0.40;;
13580;SDS011;6861;46.170;7.222;2023-05-10T09:09:35;2.50;;;0.50;;
13580;SDS011;6861;46.170;7.222;2023-05-10T09:12:04;2.78;;;0.50;;
13580;SDS011;6861;46.170;7.222;2023-05-10T09:14:33;0.80;;;0.40;;
13580;SDS011;6861;46.170;7.222;2023-05-10T09:17:03;2.10;;;0.40;;
13580;SDS011;6861;46.170;7.222;2023-05-10T09:19:32;1.50;;;0.40;;
13580;SDS011;6861;46.170;7.222;2023-05-10T09:22:02;0.75;;;0.40;;
13580;SDS011;6861;46.170;7.222;2023-05-10T09:24:30;1.00;;;0.50;;
13580;SDS011;6861;46.170;7.222;2023-05-10T09:26:58;0.98;;;0.60;;
13580;SDS011;6861;46.170;7.222;2023-05-10T09:29:26;2.55;;;0.50;;
13580;SDS011;6861;46.170;7.222;2023-05-10T09:32:06;0.75;;;0.40;;
13580;SDS011;6861;46.170;7.222;2023-05-10T09:34:34;1.38;;;0.40;;
13580;SDS011;6861;46.170;7.222;2023-05-10T09:37:07;1.40;;;0.63;;
13580;SDS011;6861;46.170;7.222;2023-05-10T09:39:36;1.33;;;0.47;;
13580;SDS011;6861;46.170;7.222;2023-05-10T09:42:05;0.85;;;0.40;;
13580;SDS011;6861;46.170;7.222;2023-05-10T09:44:35;1.70;;;0.40;;
13580;SDS011;6861;46.170;7.222;2023-05-10T09:47:04;1.20;;;0.40;;
13580;SDS011;6861;46.170;7.222;2023-05-10T09:49:32;2.20;;;0.30;;
13580;SDS011;6861;46.170;7.222;2023-05-10T09:52:01;0.85;;;0.40;;
13580;SDS011;6861;46.170;7.222;2023-05-10T09:54:31;3.00;;;0.50;;
13580;SDS011;6861;46.170;7.222;2023-05-10T09:57:00;2.47;;;0.40;;
13580;SDS011;6861;46.170;7.222;2023-05-10T09:59:28;1.77;;;0.47;;
13580;SDS011;6861;46.170;7.222;2023-05-10T10:01:57;0.95;;;0.30;;
13580;SDS011;6861;46.170;7.222;2023-05-10T10:04:27;0.70;;;0.30;;
13580;SDS011;6861;46.170;7.222;2023-05-10T10:06:59;2.05;;;0.50;;
13580;SDS011;6861;46.170;7.222;2023-05-10T10:09:31;1.02;;;0.43;;
13580;SDS011;6861;46.170;7.222;2023-05-10T10:12:00;1.65;;;0.40;;
13580;SDS011;6861;46.170;7.222;2023-05-10T10:14:30;1.50;;;0.22;;
13580;SDS011;6861;46.170;7.222;2023-05-10T10:16:58;1.05;;;0.35;;
13580;SDS011;6861;46.170;7.222;2023-05-10T10:19:31;1.10;;;0.20;;
13580;SDS011;6861;46.170;7.222;2023-05-10T10:22:02;0.90;;;0.50;;
13580;SDS011;6861;46.170;7.222;2023-05-10T10:24:32;1.65;;;0.40;;
13580;SDS011;6861;46.170;7.222;2023-05-10T10:27:02;0.60;;;0.22;;
13580;SDS011;6861;46.170;7.222;2023-05-10T10:29:37;1.42;;;0.20;;
13580;SDS011;6861;46.170;7.222;2023-05-10T10:32:17;1.77;;;0.43;;
13580;SDS011;6861;46.170;7.222;2023-05-10T10:34:53;1.65;;;0.40;;
13580;SDS011;6861;46.170;7.222;2023-05-10T10:37:23;3.20;;;0.43;;
13580;SDS011;6861;46.170;7.222;2023-05-10T10:40:28;0.70;;;0.40;;
13580;SDS011;6861;46.170;7.222;2023-05-10T10:46:09;1.55;;;0.55;;
13580;SDS011;6861;46.170;7.222;2023-05-10T10:48:39;0.50;;;0.32;;
13580;SDS011;6861;46.170;7.222;2023-05-10T10:51:07;0.55;;;0.40;;
13580;SDS011;6861;46.170;7.222;2023-05-10T10:53:38;1.00;;;0.30;;
13580;SDS011;6861;46.170;7.222;2023-05-10T10:56:09;1.70;;;0.40;;
13580;SDS011;6861;46.170;7.222;2023-05-10T10:58:39;1.38;;;0.40;;
13580;SDS011;6861;46.170;7.222;2023-05-10T11:01:09;3.63;;;0.40;;
13580;SDS011;6861;46.170;7.222;2023-05-10T11:03:38;1.75;;;0.40;;
13580;SDS011;6861;46.170;7.222;2023-05-10T11:06:06;1.95;;;0.45;;
13580;SDS011;6861;46.170;7.222;2023-05-10T11:08:41;1.05;;;0.40;;
13580;SDS011;6861;46.170;7.222;2023-05-10T11:11:14;0.77;;;0.45;;
13580;SDS011;6861;46.170;7.222;2023-05-10T11:13:42;0.40;;;0.30;;
13580;SDS011;6861;46.170;7.222;2023-05-10T11:16:16;0.60;;;0.20;;
13580;SDS011;6861;46.170;7.222;2023-05-10T11:18:53;0.73;;;0.22;;
13580;SDS011;6861;46.170;7.222;2023-05-10T11:21:24;2.13;;;0.32;;
13580;SDS011;6861;46.170;7.222;2023-05-10T11:23:53;0.50;;;0.40;;
13580;SDS011;6861;46.170;7.222;2023-05-10T11:26:25;0.63;;;0.32;;
13580;SDS011;6861;46.170;7.222;2023-05-10T11:28:57;1.55;;;0.40;;
13580;SDS011;6861;46.170;7.222;2023-05-10T11:31:27;1.23;;;0.30;;
13580;SDS011;6861;46.170;7.222;2023-05-10T11:33:58;0.40;;;0.22;;
13580;SDS011;6861;46.170;7.222;2023-05-10T11:36:28;1.08;;;0.30;;
13580;SDS011;6861;46.170;7.222;2023-05-10T11:38:57;0.75;;;0.40;;
13580;SDS011;6861;46.170;7.222;2023-05-10T11:41:28;1.27;;;0.40;;
13580;SDS011;6861;46.170;7.222;2023-05-10T11:43:57;0.70;;;0.22;;
13580;SDS011;6861;46.170;7.222;2023-05-10T11:46:27;2.38;;;0.50;;
13580;SDS011;6861;46.170;7.222;2023-05-10T11:48:57;4.05;;;0.57;;
13580;SDS011;6861;46.170;7.222;2023-05-10T11:51:28;1.02;;;0.30;;
13580;SDS011;6861;46.170;7.222;2023-05-10T11:53:56;1.33;;;0.45;;
13580;SDS011;6861;46.170;7.222;2023-05-10T11:56:24;2.88;;;0.50;;
13580;SDS011;6861;46.170;7.222;2023-05-10T11:58:54;2.05;;;0.60;;
13580;SDS011;6861;46.170;7.222;2023-05-10T12:01:24;2.45;;;0.40;;
13580;SDS011;6861;46.170;7.222;2023-05-10T12:03:53;6.38;;;0.63;;
13580;SDS011;6861;46.170;7.222;2023-05-10T12:06:26;2.50;;;0.40;;
13580;SDS011;6861;46.170;7.222;2023-05-10T12:08:54;1.50;;;0.40;;
13580;SDS011;6861;46.170;7.222;2023-05-10T12:11:24;3.03;;;0.50;;
13580;SDS011;6861;46.170;7.222;2023-05-10T12:13:55;1.20;;;0.40;;
13580;SDS011;6861;46.170;7.222;2023-05-10T12:16:24;3.92;;;0.40;;
13580;SDS011;6861;46.170;7.222;2023-05-10T12:18:54;1.00;;;0.40;;
13580;SDS011;6861;46.170;7.222;2023-05-10T12:21:23;6.50;;;0.80;;
13580;SDS011;6861;46.170;7.222;2023-05-10T12:23:52;4.43;;;0.40;;
13580;SDS011;6861;46.170;7.222;2023-05-10T12:26:21;1.60;;;0.50;;
13580;SDS011;6861;46.170;7.222;2023-05-10T12:28:50;2.28;;;0.43;;
13580;SDS011;6861;46.170;7.222;2023-05-10T12:31:20;1.60;;;0.43;;
13580;SDS011;6861;46.170;7.222;2023-05-10T12:33:48;2.25;;;0.47;;
13580;SDS011;6861;46.170;7.222;2023-05-10T12:36:16;7.00;;;0.50;;
13580;SDS011;6861;46.170;7.222;2023-05-10T12:39:00;3.50;;;0.47;;
13580;SDS011;6861;46.170;7.222;2023-05-10T12:41:31;3.90;;;0.45;;
13580;SDS011;6861;46.170;7.222;2023-05-10T12:43:59;1.90;;;0.50;;
13580;SDS011;6861;46.170;7.222;2023-05-10T12:46:28;1.98;;;0.50;;
13580;SDS011;6861;46.170;7.222;2023-05-10T12:48:57;1.75;;;0.60;;
13580;SDS011;6861;46.170;7.222;2023-05-10T12:51:34;1.90;;;0.60;;
13580;SDS011;6861;46.170;7.222;2023-05-10T12:54:02;2.33;;;0.50;;
13580;SDS011;6861;46.170;7.222;2023-05-10T12:56:31;3.30;;;0.90;;
13580;SDS011;6861;46.170;7.222;2023-05-10T12:58:59;0.88;;;0.50;;
13580;SDS011;6861;46.170;7.222;2023-05-10T13:01:28;1.10;;;0.47;;
13580;SDS011;6861;46.170;7.222;2023-05-10T13:03:57;4.15;;;0.60;;
13580;SDS011;6861;46.170;7.222;2023-05-10T13:06:26;1.55;;;0.35;;
13580;SDS011;6861;46.170;7.222;2023-05-10T13:08:54;1.77;;;0.68;;
13580;SDS011;6861;46.170;7.222;2023-05-10T13:11:23;1.90;;;0.50;;
13580;SDS011;6861;46.170;7.222;2023-05-10T13:13:51;2.50;;;0.70;;
13580;SDS011;6861;46.170;7.222;2023-05-10T13:16:20;2.03;;;0.60;;
13580;SDS011;6861;46.170;7.222;2023-05-10T13:18:49;1.08;;;0.50;;
13580;SDS011;6861;46.170;7.222;2023-05-10T13:21:17;0.85;;;0.40;;
13580;SDS011;6861;46.170;7.222;2023-05-10T13:23:45;3.65;;;0.80;;
13580;SDS011;6861;46.170;7.222;2023-05-10T13:26:14;3.30;;;0.75;;
13580;SDS011;6861;46.170;7.222;2023-05-10T13:28:42;1.88;;;0.57;;
13580;SDS011;6861;46.170;7.222;2023-05-10T13:31:12;1.92;;;0.60;;
13580;SDS011;6861;46.170;7.222;2023-05-10T13:33:40;0.93;;;0.70;;
13580;SDS011;6861;46.170;7.222;2023-05-10T13:36:10;1.40;;;0.40;;
13580;SDS011;6861;46.170;7.222;2023-05-10T13:38:38;2.70;;;0.55;;
13580;SDS011;6861;46.170;7.222;2023-05-10T13:41:06;1.05;;;0.40;;
13580;SDS011;6861;46.170;7.222;2023-05-10T13:43:34;3.25;;;0.55;;
13580;SDS011;6861;46.170;7.222;2023-05-10T13:46:02;3.42;;;0.60;;
13580;SDS011;6861;46.170;7.222;2023-05-10T13:48:31;2.08;;;0.60;;
13580;SDS011;6861;46.170;7.222;2023-05-10T13:50:59;2.30;;;0.68;;
13580;SDS011;6861;46.170;7.222;2023-05-10T13:53:29;3.88;;;0.50;;
13580;SDS011;6861;46.170;7.222;2023-05-10T13:55:57;1.55;;;0.60;;
13580;SDS011;6861;46.170;7.222;2023-05-10T13:58:25;1.45;;;0.60;;
13580;SDS011;6861;46.170;7.222;2023-05-10T14:00:53;4.97;;;0.90;;
13580;SDS011;6861;46.170;7.222;2023-05-10T14:03:21;3.38;;;0.88;;
13580;SDS011;6861;46.170;7.222;2023-05-10T14:05:49;3.05;;;0.60;;
13580;SDS011;6861;46.170;7.222;2023-05-10T14:08:17;3.92;;;0.60;;
13580;SDS011;6861;46.170;7.222;2023-05-10T14:10:47;2.78;;;1.00;;
13580;SDS011;6861;46.170;7.222;2023-05-10T14:13:17;3.13;;;0.70;;
13580;SDS011;6861;46.170;7.222;2023-05-10T14:15:45;2.58;;;0.45;;
13580;SDS011;6861;46.170;7.222;2023-05-10T14:18:13;2.67;;;0.50;;
13580;SDS011;6861;46.170;7.222;2023-05-10T14:20:41;1.88;;;0.45;;
13580;SDS011;6861;46.170;7.222;2023-05-10T14:23:09;2.88;;;0.95;;
13580;SDS011;6861;46.170;7.222;2023-05-10T14:25:37;1.17;;;0.57;;
13580;SDS011;6861;46.170;7.222;2023-05-10T14:28:09;2.97;;;0.68;;
13580;SDS011;6861;46.170;7.222;2023-05-10T14:30:38;3.05;;;0.80;;
13580;SDS011;6861;46.170;7.222;2023-05-10T14:33:06;3.38;;;0.68;;
13580;SDS011;6861;46.170;7.222;2023-05-10T14:35:34;4.53;;;0.88;;
13580;SDS011;6861;46.170;7.222;2023-05-10T14:38:03;10.23;;;0.88;;
13580;SDS011;6861;46.170;7.222;2023-05-10T14:40:31;2.15;;;0.70;;
13580;SDS011;6861;46.170;7.222;2023-05-10T14:42:59;3.40;;;0.65;;
13580;SDS011;6861;46.170;7.222;2023-05-10T14:45:29;3.05;;;0.80;;
13580;SDS011;6861;46.170;7.222;2023-05-10T14:47:57;1.50;;;0.57;;
13580;SDS011;6861;46.170;7.222;2023-05-10T14:50:26;3.65;;;0.63;;
13580;SDS011;6861;46.170;7.222;2023-05-10T14:52:57;6.10;;;1.70;;
13580;SDS011;6861;46.170;7.222;2023-05-10T14:55:25;6.22;;;1.10;;
13580;SDS011;6861;46.170;7.222;2023-05-10T14:57:53;3.38;;;1.10;;
13580;SDS011;6861;46.170;7.222;2023-05-10T15:00:21;5.68;;;1.00;;
13580;SDS011;6861;46.170;7.222;2023-05-10T15:02:51;2.65;;;0.75;;
13580;SDS011;6861;46.170;7.222;2023-05-10T15:05:20;3.13;;;0.80;;
13580;SDS011;6861;46.170;7.222;2023-05-10T15:07:48;2.45;;;0.57;;
13580;SDS011;6861;46.170;7.222;2023-05-10T15:10:17;4.63;;;0.70;;
13580;SDS011;6861;46.170;7.222;2023-05-10T15:12:45;4.32;;;0.80;;
13580;SDS011;6861;46.170;7.222;2023-05-10T15:15:13;1.73;;;0.70;;
13580;SDS011;6861;46.170;7.222;2023-05-10T15:17:42;0.93;;;0.50;;
13580;SDS011;6861;46.170;7.222;2023-05-10T15:20:12;1.83;;;0.73;;